createdAt,value
2018-04-12T00:00:03.606Z,69.05
2018-04-12T00:02:31.887Z,69.75
2018-04-12T00:05:00.153Z,69.03
2018-04-12T00:07:28.441Z,68.96
2018-04-12T00:09:56.711Z,68.41
2018-04-12T00:12:24.977Z,68.77
2018-04-12T00:14:53.253Z,69.32
2018-04-12T00:17:21.521Z,69.32
2018-04-12T00:19:49.810Z,69.68
2018-04-12T00:22:18.074Z,69.21
2018-04-12T00:24:46.345Z,70.11
2018-04-12T00:27:14.625Z,69.79
2018-04-12T00:29:42.890Z,69.61
2018-04-12T00:32:11.178Z,70.13
2018-04-12T00:34:39.454Z,69.95
2018-04-12T00:37:07.729Z,70.46
2018-04-12T00:39:36.006Z,69.58
2018-04-12T00:42:04.289Z,69.75
2018-04-12T00:44:32.574Z,69.27
2018-04-12T00:47:00.845Z,70.00
2018-04-12T00:49:29.116Z,70.13
2018-04-12T00:51:57.393Z,69.72
2018-04-12T00:54:25.663Z,69.74
2018-04-12T00:56:53.945Z,69.41
2018-04-12T00:59:22.217Z,70.00
2018-04-12T01:01:50.486Z,69.69
2018-04-12T01:04:18.761Z,69.42
2018-04-12T01:06:47.025Z,69.89
2018-04-12T01:09:15.309Z,69.44
2018-04-12T01:11:43.577Z,69.36
2018-04-12T01:14:11.857Z,69.88
2018-04-12T01:16:40.142Z,69.19
2018-04-12T01:19:08.425Z,69.58
2018-04-12T01:21:36.730Z,69.74
2018-04-12T01:24:04.981Z,69.73
2018-04-12T01:26:33.238Z,69.60
2018-04-12T01:29:01.509Z,69.24
2018-04-12T01:31:29.781Z,69.62
2018-04-12T01:33:58.061Z,69.38
2018-04-12T01:36:26.333Z,69.32
2018-04-12T01:38:54.601Z,69.29
2018-04-12T01:41:22.874Z,69.57
2018-04-12T01:43:51.142Z,69.47
2018-04-12T01:46:19.429Z,69.49
2018-04-12T01:48:47.702Z,69.64
2018-04-12T01:51:15.961Z,69.13
2018-04-12T01:53:44.246Z,68.86
2018-04-12T01:56:13.429Z,69.27
2018-04-12T02:01:38.915Z,69.83
2018-04-12T02:04:07.179Z,70.43
2018-04-12T02:06:35.467Z,70.65
2018-04-12T02:09:03.739Z,69.96
2018-04-12T02:11:32.016Z,70.04
2018-04-12T02:14:00.302Z,70.36
2018-04-12T02:16:28.576Z,70.04
2018-04-12T02:18:56.876Z,69.51
2018-04-12T02:21:25.146Z,69.55
2018-04-12T02:23:53.422Z,69.54
2018-04-12T02:26:21.704Z,69.67
2018-04-12T02:28:50.089Z,68.86
2018-04-12T02:31:18.364Z,69.91
2018-04-12T02:33:46.657Z,69.73
2018-04-12T02:36:14.932Z,69.37
2018-04-12T02:38:43.214Z,69.57
2018-04-12T02:41:11.500Z,69.44
2018-04-12T02:43:39.815Z,69.62
2018-04-12T02:46:08.093Z,69.32
2018-04-12T02:48:36.366Z,69.79
2018-04-12T02:51:04.658Z,69.89
2018-04-12T02:53:32.935Z,70.12
2018-04-12T02:56:01.267Z,70.19
2018-04-12T02:58:29.534Z,70.41
2018-04-12T03:00:57.814Z,70.32
2018-04-12T03:03:26.102Z,70.20
2018-04-12T03:05:54.386Z,70.66
2018-04-12T03:08:22.679Z,71.05
2018-04-12T03:10:50.946Z,71.26
2018-04-12T03:13:19.219Z,71.01
2018-04-12T03:15:47.503Z,71.14
2018-04-12T03:18:15.778Z,70.48
2018-04-12T03:20:44.079Z,70.35
2018-04-12T03:23:12.350Z,70.44
2018-04-12T03:25:40.626Z,70.18
2018-04-12T03:28:08.919Z,70.25
2018-04-12T03:30:37.219Z,70.27
2018-04-12T03:33:05.494Z,69.52
2018-04-12T03:35:33.771Z,70.42
2018-04-12T03:38:02.049Z,70.09
2018-04-12T03:40:30.342Z,70.08
2018-04-12T03:42:58.618Z,70.24
2018-04-12T03:45:26.914Z,70.25
2018-04-12T03:47:55.190Z,70.22
2018-04-12T03:50:23.530Z,70.19
2018-04-12T03:52:51.758Z,70.68
2018-04-12T03:55:20.040Z,71.36
2018-04-12T03:57:48.325Z,70.94
2018-04-12T04:00:16.602Z,70.63
2018-04-12T04:02:44.874Z,70.78
2018-04-12T04:05:13.151Z,70.92
2018-04-12T04:07:41.535Z,70.55
2018-04-12T04:10:09.823Z,71.18
2018-04-12T04:12:38.098Z,70.77
2018-04-12T04:15:18.058Z,71.15
2018-04-12T04:17:57.915Z,70.65
2018-04-12T04:20:37.914Z,71.03
2018-04-12T04:23:06.206Z,70.55
2018-04-12T04:25:34.480Z,70.38
2018-04-12T04:28:02.759Z,71.29
2018-04-12T04:30:31.036Z,71.39
2018-04-12T04:32:59.327Z,71.63
2018-04-12T04:35:27.603Z,70.72
2018-04-12T04:37:55.883Z,70.99
2018-04-12T04:40:24.166Z,70.30
2018-04-12T04:42:52.435Z,70.67
2018-04-12T04:45:20.763Z,70.23
2018-04-12T04:47:49.011Z,69.88
2018-04-12T04:50:17.289Z,70.89
2018-04-12T04:52:45.566Z,70.58
2018-04-12T04:55:13.847Z,70.29
2018-04-12T04:57:42.170Z,69.73
2018-04-12T05:00:10.474Z,70.52
2018-04-12T05:02:38.725Z,70.16
2018-04-12T05:05:07.010Z,71.02
2018-04-12T05:07:35.281Z,70.67
2018-04-12T05:10:03.579Z,70.85
2018-04-12T05:12:31.854Z,70.80
2018-04-12T05:15:00.138Z,70.32
2018-04-12T05:17:28.416Z,69.96
2018-04-12T05:19:56.694Z,70.69
2018-04-12T05:22:25.019Z,71.22
2018-04-12T05:24:53.294Z,70.32
2018-04-12T05:27:21.575Z,70.44
2018-04-12T05:29:49.862Z,71.34
2018-04-12T05:32:18.139Z,71.29
2018-04-12T05:34:46.426Z,70.39
2018-04-12T05:37:14.702Z,71.54
2018-04-12T05:39:42.995Z,71.41
2018-04-12T05:42:11.294Z,71.22
2018-04-12T05:44:39.575Z,71.34
2018-04-12T05:47:07.848Z,69.76
2018-04-12T05:49:36.139Z,69.87
2018-04-12T05:52:04.419Z,70.79
2018-04-12T05:54:32.691Z,70.53
2018-04-12T05:57:00.991Z,70.02
2018-04-12T05:59:29.266Z,70.68
2018-04-12T06:01:57.542Z,70.66
2018-04-12T06:04:25.844Z,69.97
2018-04-12T06:06:54.125Z,69.83
2018-04-12T06:09:22.398Z,70.39
2018-04-12T06:11:50.696Z,71.20
2018-04-12T06:14:18.975Z,70.85
2018-04-12T06:16:47.259Z,72.05
2018-04-12T06:19:15.550Z,71.31
2018-04-12T06:21:43.862Z,71.02
2018-04-12T06:24:12.139Z,70.69
2018-04-12T06:26:40.434Z,70.75
2018-04-12T06:29:08.706Z,70.73
2018-04-12T06:31:36.986Z,71.05
2018-04-12T06:34:05.281Z,70.76
2018-04-12T06:36:33.556Z,71.91
2018-04-12T06:39:01.835Z,71.05
2018-04-12T06:41:30.127Z,70.33
2018-04-12T06:43:58.410Z,69.94
2018-04-12T06:46:26.691Z,70.58
2018-04-12T06:48:54.981Z,70.82
2018-04-12T06:51:23.266Z,70.63
2018-04-12T06:53:51.545Z,70.85
2018-04-12T06:56:19.835Z,70.43
2018-04-12T06:58:48.112Z,70.46
2018-04-12T07:01:16.388Z,70.28
2018-04-12T07:03:44.686Z,70.00
2018-04-12T07:06:12.996Z,70.47
2018-04-12T07:08:41.243Z,69.73
2018-04-12T07:11:09.543Z,71.18
2018-04-12T07:13:37.819Z,71.10
2018-04-12T07:16:06.090Z,69.88
2018-04-12T07:18:34.382Z,68.81
2018-04-12T07:21:02.658Z,69.49
2018-04-12T07:23:30.934Z,68.51
2018-04-12T07:25:59.251Z,67.79
2018-04-12T07:28:27.526Z,68.44
2018-04-12T07:30:55.811Z,67.34
2018-04-12T07:33:24.126Z,68.01
2018-04-12T07:35:52.410Z,66.59
2018-04-12T07:38:20.690Z,67.53
2018-04-12T07:40:49.003Z,65.98
2018-04-12T07:43:17.278Z,65.47
2018-04-12T07:45:45.575Z,66.39
2018-04-12T07:48:13.885Z,67.28
2018-04-12T07:50:42.168Z,66.74
2018-04-12T07:53:10.439Z,65.77
2018-04-12T07:55:39.011Z,64.29
2018-04-12T07:58:07.286Z,62.94
2018-04-12T08:00:35.563Z,57.33
2018-04-12T08:03:03.854Z,59.08
2018-04-12T08:05:32.147Z,57.92
2018-04-12T08:08:00.476Z,59.73
2018-04-12T08:10:28.711Z,58.24
2018-04-12T08:12:56.981Z,56.46
2018-04-12T08:15:25.255Z,57.32
2018-04-12T08:17:53.558Z,57.72
2018-04-12T08:20:21.862Z,60.49
2018-04-12T08:22:50.143Z,60.80
2018-04-12T08:25:18.459Z,61.88
2018-04-12T08:27:46.746Z,63.25
2018-04-12T08:30:15.034Z,62.84
2018-04-12T08:32:43.318Z,63.10
2018-04-12T08:35:11.591Z,61.50
2018-04-12T08:37:39.898Z,61.79
2018-04-12T08:40:08.196Z,60.47
2018-04-12T08:42:36.476Z,59.30
2018-04-12T08:45:04.743Z,60.38
2018-04-12T08:47:33.040Z,58.73
2018-04-12T08:50:01.310Z,56.36
2018-04-12T08:52:29.594Z,54.20
2018-04-12T08:54:57.882Z,55.28
2018-04-12T08:57:26.166Z,55.80
2018-04-12T08:59:54.455Z,57.92
2018-04-12T09:02:22.735Z,56.35
2018-04-12T09:04:51.025Z,55.92
2018-04-12T09:07:19.298Z,57.00
2018-04-12T09:09:47.590Z,56.81
2018-04-12T09:12:15.873Z,55.56
2018-04-12T09:14:44.154Z,56.56
2018-04-12T09:17:12.426Z,55.27
2018-04-12T09:19:40.720Z,55.01
2018-04-12T09:22:08.996Z,54.13
2018-04-12T09:24:37.287Z,52.72
2018-04-12T09:27:05.568Z,52.10
2018-04-12T09:29:33.851Z,51.95
2018-04-12T09:32:02.153Z,51.80
2018-04-12T09:34:30.414Z,52.64
2018-04-12T09:36:58.707Z,52.46
2018-04-12T09:39:27.035Z,53.28
2018-04-12T09:41:55.330Z,52.86
2018-04-12T09:44:23.607Z,54.61
2018-04-12T09:46:51.894Z,54.53
2018-04-12T09:49:20.197Z,53.60
2018-04-12T09:51:48.483Z,53.54
2018-04-12T09:54:16.746Z,53.83
2018-04-12T09:56:45.047Z,52.31
2018-04-12T09:59:13.315Z,53.02
2018-04-12T10:01:47.160Z,52.86
2018-04-12T10:04:16.234Z,52.01
2018-04-12T10:06:50.009Z,51.23
2018-04-12T10:09:18.289Z,51.94
2018-04-12T10:11:46.558Z,51.67
2018-04-12T10:14:15.692Z,52.56
2018-04-12T10:16:43.957Z,52.09
2018-04-12T10:19:12.262Z,51.53
2018-04-12T10:21:40.595Z,50.62
2018-04-12T10:24:08.834Z,51.35
2018-04-12T10:26:37.110Z,51.15
2018-04-12T10:29:05.402Z,53.43
2018-04-12T10:31:33.675Z,52.97
2018-04-12T10:34:01.962Z,53.69
2018-04-12T10:36:30.241Z,52.61
2018-04-12T10:38:58.523Z,51.47
2018-04-12T10:41:26.802Z,50.80
2018-04-12T10:43:55.099Z,52.73
2018-04-12T10:46:23.391Z,52.30
2018-04-12T10:48:51.953Z,51.67
2018-04-12T10:51:20.236Z,51.47
2018-04-12T10:53:48.515Z,52.92
2018-04-12T10:56:16.806Z,52.27
2018-04-12T10:58:45.287Z,50.75
2018-04-12T11:01:13.664Z,50.25
2018-04-12T11:03:41.963Z,50.28
2018-04-12T11:06:10.491Z,50.77
2018-04-12T11:08:38.801Z,50.89
2018-04-12T11:11:07.095Z,51.81
2018-04-12T11:13:35.850Z,51.27
2018-04-12T11:16:04.170Z,50.18
2018-04-12T11:18:32.619Z,49.49
2018-04-12T11:21:00.855Z,49.65
2018-04-12T11:23:29.289Z,51.79
2018-04-12T11:25:57.665Z,52.60
2018-04-12T11:28:26.163Z,51.12
2018-04-12T11:30:54.844Z,52.68
2018-04-12T11:33:23.558Z,52.28
2018-04-12T11:35:51.923Z,52.32
2018-04-12T11:38:20.202Z,51.60
2018-04-12T11:40:48.479Z,50.19
2018-04-12T11:43:16.769Z,50.46
2018-04-12T11:45:45.075Z,49.60
2018-04-12T11:48:13.370Z,49.14
2018-04-12T11:50:41.654Z,49.62
2018-04-12T11:53:09.948Z,49.88
2018-04-12T11:55:38.258Z,49.72
2018-04-12T11:58:06.522Z,48.63
2018-04-12T12:00:34.804Z,48.50
2018-04-12T12:03:03.115Z,47.46
2018-04-12T12:05:31.546Z,47.96
2018-04-12T12:07:59.869Z,47.79
2018-04-12T12:10:28.166Z,48.23
2018-04-12T12:12:56.439Z,47.29
2018-04-12T12:15:24.719Z,47.03
2018-04-12T12:17:53.019Z,47.89
2018-04-12T12:20:21.291Z,47.50
2018-04-12T12:22:49.604Z,46.41
2018-04-12T12:28:14.598Z,44.77
2018-04-12T12:30:42.882Z,43.71
2018-04-12T12:33:11.164Z,42.78
2018-04-12T12:35:39.446Z,42.12
2018-04-12T12:38:07.736Z,41.93
2018-04-12T12:40:36.023Z,41.03
2018-04-12T12:43:04.310Z,40.63
2018-04-12T12:45:32.605Z,41.39
2018-04-12T12:48:00.881Z,41.37
2018-04-12T12:50:29.155Z,40.95
2018-04-12T12:52:57.439Z,41.23
2018-04-12T12:55:25.718Z,41.09
2018-04-12T12:57:54.008Z,40.72
2018-04-12T13:00:22.292Z,42.25
2018-04-12T13:02:51.629Z,42.53
2018-04-12T13:05:19.914Z,42.13
2018-04-12T13:07:48.205Z,42.36
2018-04-12T13:10:16.482Z,42.87
2018-04-12T13:12:45.674Z,42.30
2018-04-12T13:15:13.966Z,42.26
2018-04-12T13:17:42.238Z,42.20
2018-04-12T13:20:10.524Z,42.17
2018-04-12T13:22:38.809Z,41.82
2018-04-12T13:25:07.106Z,41.88
2018-04-12T13:27:35.377Z,42.05
2018-04-12T13:30:03.650Z,42.13
2018-04-12T13:32:31.941Z,41.25
2018-04-12T13:35:00.225Z,40.62
2018-04-12T13:37:28.503Z,41.00
2018-04-12T13:39:56.786Z,40.33
2018-04-12T13:42:25.110Z,40.13
2018-04-12T13:44:53.350Z,40.85
2018-04-12T13:47:21.641Z,40.86
2018-04-12T13:49:49.926Z,41.12
2018-04-12T13:52:18.199Z,41.22
2018-04-12T13:54:46.502Z,40.65
2018-04-12T13:57:14.776Z,40.90
2018-04-12T13:59:43.054Z,40.55
2018-04-12T14:02:11.336Z,40.96
2018-04-12T14:04:39.623Z,41.14
2018-04-12T14:07:07.891Z,40.70
2018-04-12T14:09:36.186Z,40.87
2018-04-12T14:12:04.470Z,41.21
2018-04-12T14:14:32.754Z,40.10
2018-04-12T14:17:01.047Z,40.48
2018-04-12T14:19:29.319Z,40.69
2018-04-12T14:21:57.610Z,40.00
2018-04-12T14:24:25.903Z,39.77
2018-04-12T14:26:54.189Z,39.85
2018-04-12T14:29:22.466Z,40.59
2018-04-12T14:31:50.735Z,40.03
2018-04-12T14:34:19.022Z,39.86
2018-04-12T14:36:47.295Z,39.92
2018-04-12T14:39:15.587Z,39.90
2018-04-12T14:41:43.884Z,40.84
2018-04-12T14:44:12.176Z,40.89
2018-04-12T14:46:40.450Z,41.21
2018-04-12T14:49:08.730Z,41.07
2018-04-12T14:51:37.024Z,41.13
2018-04-12T14:54:05.313Z,40.13
2018-04-12T14:56:33.607Z,40.23
2018-04-12T14:59:01.878Z,40.86
2018-04-12T15:01:30.158Z,41.63
2018-04-12T15:03:58.434Z,41.75
2018-04-12T15:06:26.716Z,41.62
2018-04-12T15:08:55.126Z,42.07
2018-04-12T15:11:23.430Z,41.93
2018-04-12T15:13:51.706Z,41.19
2018-04-12T15:16:19.997Z,41.48
2018-04-12T15:18:48.301Z,40.87
2018-04-12T15:21:16.566Z,41.02
2018-04-12T15:23:44.849Z,40.85
2018-04-12T15:26:13.138Z,41.12
2018-04-12T15:28:41.434Z,40.35
2018-04-12T15:31:09.735Z,41.10
2018-04-12T15:33:38.023Z,40.79
2018-04-12T15:36:06.314Z,40.63
2018-04-12T15:38:34.603Z,39.93
2018-04-12T15:41:02.881Z,40.40
2018-04-12T15:43:31.187Z,40.32
2018-04-12T15:45:59.524Z,40.61
2018-04-12T15:48:27.814Z,41.13
2018-04-12T15:50:56.698Z,40.98
2018-04-12T15:53:25.001Z,40.92
2018-04-12T15:55:53.279Z,41.16
2018-04-12T15:58:21.555Z,41.34
2018-04-12T16:00:50.102Z,41.96
2018-04-12T16:03:18.382Z,42.35
2018-04-12T16:05:46.667Z,42.25
2018-04-12T16:08:14.958Z,42.55
2018-04-12T16:10:43.238Z,42.79
2018-04-12T16:13:11.562Z,42.86
2018-04-12T16:15:39.842Z,42.90
2018-04-12T16:18:08.135Z,42.85
2018-04-12T16:20:36.419Z,42.97
2018-04-12T16:23:04.719Z,42.91
2018-04-12T16:25:33.008Z,42.85
2018-04-12T16:28:01.290Z,42.66
2018-04-12T16:30:29.583Z,43.09
2018-04-12T16:32:57.860Z,43.14
2018-04-12T16:35:26.153Z,42.71
2018-04-12T16:37:54.426Z,43.11
2018-04-12T16:40:22.702Z,42.01
2018-04-12T16:42:50.986Z,41.60
2018-04-12T16:45:19.254Z,41.03
2018-04-12T16:47:47.539Z,40.19
2018-04-12T16:50:15.814Z,40.44
2018-04-12T16:52:44.122Z,40.37
2018-04-12T16:55:12.420Z,40.79
2018-04-12T16:57:40.693Z,40.63
2018-04-12T17:00:08.995Z,40.06
2018-04-12T17:02:37.253Z,40.38
2018-04-12T17:05:05.550Z,40.12
2018-04-12T17:07:33.822Z,39.99
2018-04-12T17:10:02.359Z,39.90
2018-04-12T17:12:30.634Z,40.40
2018-04-12T17:14:58.898Z,40.51
2018-04-12T17:17:27.181Z,40.94
2018-04-12T17:19:55.458Z,40.84
2018-04-12T17:22:23.738Z,41.15
2018-04-12T17:24:52.006Z,41.29
2018-04-12T17:27:20.278Z,41.48
2018-04-12T17:29:48.565Z,41.21
2018-04-12T17:32:16.841Z,41.75
2018-04-12T17:34:45.119Z,41.92
2018-04-12T17:37:13.383Z,41.74
2018-04-12T17:39:41.670Z,41.88
2018-04-12T17:42:09.938Z,42.12
2018-04-12T17:44:38.215Z,42.14
2018-04-12T17:47:06.486Z,42.36
2018-04-12T17:49:34.755Z,42.36
2018-04-12T17:52:03.042Z,42.47
2018-04-12T17:54:31.319Z,42.90
2018-04-12T17:56:59.707Z,42.46
2018-04-12T17:59:27.975Z,42.60
2018-04-12T18:01:56.264Z,42.58
2018-04-12T18:04:24.526Z,42.91
2018-04-12T18:06:52.802Z,42.75
2018-04-12T18:09:21.075Z,42.75
2018-04-12T18:11:50.055Z,42.83
2018-04-12T18:14:18.485Z,42.76
2018-04-12T18:16:46.746Z,42.41
2018-04-12T18:19:15.045Z,42.62
2018-04-12T18:21:43.313Z,42.24
2018-04-12T18:24:11.588Z,42.85
2018-04-12T18:26:39.865Z,43.03
2018-04-12T18:29:08.142Z,42.90
2018-04-12T18:31:36.430Z,43.11
2018-04-12T18:34:04.706Z,43.28
2018-04-12T18:36:32.995Z,43.49
2018-04-12T18:39:01.258Z,43.64
2018-04-12T18:41:29.534Z,43.71
2018-04-12T18:43:57.822Z,44.35
2018-04-12T18:46:26.086Z,44.96
2018-04-12T18:48:54.404Z,45.44
2018-04-12T18:51:22.670Z,45.93
2018-04-12T18:53:50.951Z,46.14
2018-04-12T18:56:19.257Z,46.83
2018-04-12T18:58:47.521Z,47.28
2018-04-12T19:01:15.806Z,47.74
2018-04-12T19:03:44.075Z,48.22
2018-04-12T19:06:12.359Z,48.55
2018-04-12T19:08:40.631Z,49.30
2018-04-12T19:11:08.909Z,49.37
2018-04-12T19:13:37.179Z,49.06
2018-04-12T19:16:05.454Z,49.65
2018-04-12T19:18:33.738Z,49.18
2018-04-12T19:21:02.010Z,49.29
2018-04-12T19:23:30.285Z,48.98
2018-04-12T19:25:58.577Z,49.55
2018-04-12T19:28:26.855Z,48.91
2018-04-12T19:30:55.119Z,50.37
2018-04-12T19:33:23.402Z,50.32
2018-04-12T19:35:51.672Z,51.06
2018-04-12T19:38:19.946Z,50.55
2018-04-12T19:40:48.235Z,50.81
2018-04-12T19:43:16.502Z,50.44
2018-04-12T19:45:44.774Z,50.47
2018-04-12T19:48:13.054Z,50.84
2018-04-12T19:50:41.374Z,50.73
2018-04-12T19:53:09.659Z,51.18
2018-04-12T19:55:37.925Z,51.26
2018-04-12T19:58:06.197Z,52.74
2018-04-12T20:00:34.498Z,53.28
2018-04-12T20:03:02.774Z,53.07
2018-04-12T20:05:31.050Z,53.25
2018-04-12T20:07:59.578Z,52.68
2018-04-12T20:10:27.846Z,53.41
2018-04-12T20:12:56.107Z,53.54
2018-04-12T20:15:24.382Z,53.78
2018-04-12T20:17:52.645Z,53.89
2018-04-12T20:20:20.934Z,54.18
2018-04-12T20:22:49.220Z,54.12
2018-04-12T20:25:17.462Z,54.80
2018-04-12T20:27:45.726Z,55.70
2018-04-12T20:30:14.022Z,55.90
2018-04-12T20:32:42.285Z,56.07
2018-04-12T20:35:10.558Z,56.57
2018-04-12T20:37:38.849Z,56.96
2018-04-12T20:40:07.122Z,56.98
2018-04-12T20:42:35.405Z,57.84
2018-04-12T20:45:03.680Z,57.16
2018-04-12T20:47:31.958Z,57.51
2018-04-12T20:50:00.226Z,58.28
2018-04-12T20:52:28.514Z,57.44
2018-04-12T20:54:56.788Z,58.58
2018-04-12T20:57:25.074Z,57.81
2018-04-12T20:59:53.349Z,57.32
2018-04-12T21:02:21.612Z,57.27
2018-04-12T21:04:49.891Z,57.96
2018-04-12T21:07:18.158Z,57.76
2018-04-12T21:09:46.441Z,58.22
2018-04-12T21:12:14.707Z,57.86
2018-04-12T21:14:42.986Z,57.70
2018-04-12T21:17:11.254Z,57.82
2018-04-12T21:19:39.538Z,57.86
2018-04-12T21:22:07.829Z,57.94
2018-04-12T21:24:36.095Z,58.76
2018-04-12T21:27:04.382Z,58.95
2018-04-12T21:29:32.656Z,59.14
2018-04-12T21:32:00.940Z,59.27
2018-04-12T21:34:29.202Z,59.40
2018-04-12T21:36:57.742Z,59.14
2018-04-12T21:39:26.010Z,59.71
2018-04-12T21:41:54.279Z,59.74
2018-04-12T21:44:22.555Z,59.71
2018-04-12T21:46:50.818Z,59.74
2018-04-12T21:49:19.121Z,59.94
2018-04-12T21:51:47.382Z,59.81
2018-04-12T21:54:15.768Z,60.10
2018-04-12T21:56:44.038Z,60.84
2018-04-12T21:59:12.320Z,60.77
2018-04-12T22:01:40.590Z,61.07
2018-04-12T22:04:08.875Z,59.73
2018-04-12T22:06:37.145Z,60.33
2018-04-12T22:09:06.134Z,60.19
2018-04-12T22:11:34.418Z,60.93
2018-04-12T22:14:02.690Z,60.88
2018-04-12T22:16:30.966Z,61.78
2018-04-12T22:18:59.234Z,61.62
2018-04-12T22:21:27.764Z,60.87
2018-04-12T22:23:56.049Z,61.18
2018-04-12T22:26:24.327Z,61.45
2018-04-12T22:28:52.598Z,61.70
2018-04-12T22:31:20.874Z,61.47
2018-04-12T22:33:49.149Z,61.51
2018-04-12T22:36:17.402Z,61.69
2018-04-12T22:38:45.691Z,62.84
2018-04-12T22:41:13.979Z,62.20
2018-04-12T22:43:42.259Z,62.62
2018-04-12T22:46:10.534Z,62.45
2018-04-12T22:48:38.824Z,62.00
2018-04-12T22:51:07.082Z,61.67
2018-04-12T22:53:35.350Z,62.29
2018-04-12T22:56:03.624Z,61.48
2018-04-12T22:58:31.886Z,61.34
2018-04-12T23:01:00.158Z,62.07
2018-04-12T23:03:28.430Z,62.36
2018-04-12T23:05:56.702Z,62.58
2018-04-12T23:08:24.976Z,62.63
2018-04-12T23:10:53.263Z,63.22
2018-04-12T23:13:21.542Z,63.25
2018-04-12T23:15:49.810Z,63.03
2018-04-12T23:18:18.085Z,62.08
2018-04-12T23:20:46.359Z,62.24
2018-04-12T23:23:14.642Z,62.47
2018-04-12T23:25:42.906Z,61.70
2018-04-12T23:28:11.186Z,62.94
2018-04-12T23:30:39.454Z,62.76
2018-04-12T23:33:07.739Z,62.89
2018-04-12T23:35:36.022Z,63.73
2018-04-12T23:38:04.546Z,63.70
2018-04-12T23:40:32.821Z,63.65
2018-04-12T23:43:01.090Z,62.47
2018-04-12T23:45:29.373Z,63.30
2018-04-12T23:47:57.638Z,64.17
2018-04-12T23:50:25.918Z,64.29
2018-04-12T23:52:54.190Z,63.96
2018-04-12T23:55:22.471Z,63.77
2018-04-12T23:57:50.747Z,64.26
